Upstream stations:
Downstream station:
SHEF ID: INGA4 Red River at Index, AR
STATION TYPE:
Regulating: Stage = 19.80, Flow = 109265
PRECIP STAGE RIV-FLOW
in ft cfs
Ccp-Rev Ccp-Rev Ccp-Rev
(US/Central)
06/13 00:00 0.00 5.13 18759
06/13 01:00 0.00 5.16 18898
06/13 02:00 0.00 5.18 18991
06/13 03:00 0.00 5.20 19084
06/13 04:00 0.00 5.22 19176
06/13 05:00 0.00 5.25 19316
06/13 06:00 0.00 5.27 19409
06/13 07:00 0.00 5.28 19456
06/13 08:00 0.00 5.31 19596
06/13 09:00 0.00 5.33 19690
06/13 10:00 0.00 5.35 19784
06/13 11:00 0.00 5.36 19831
06/13 12:00 0.00 5.37 19878
06/13 13:00 0.00 5.38 19925
06/13 14:00 0.00 5.40 20019
06/13 15:00 0.00 5.41 20066
06/13 16:00 0.00 5.44 20207
06/13 17:00 0.00 5.44 20207
06/13 18:00 0.00 5.47 20349
06/13 19:00 0.00 5.46 20302
06/13 20:00 0.00 5.50 20491
06/13 21:00 0.00 5.50 20491
06/13 22:00 0.00 5.52 20586
06/13 23:00 0.00 5.53 20633